createdAt,value
2018-10-11T08:01:28.750Z,17.50
2018-10-11T08:06:50.496Z,16.80
2018-10-11T08:11:50.836Z,14.70
2018-10-11T08:17:00.058Z,16.80
2018-10-11T08:22:16.557Z,16.40
2018-10-11T08:27:11.772Z,15.00
2018-10-11T08:32:19.355Z,15.90
2018-10-11T08:37:27.350Z,17.70
2018-10-11T08:43:01.193Z,17.50
2018-10-11T08:48:03.644Z,14.90
2018-10-11T08:53:08.796Z,15.60
2018-10-11T08:58:17.157Z,14.90
2018-10-11T09:03:42.747Z,16.00
2018-10-11T09:08:44.572Z,17.60
2018-10-11T09:13:40.401Z,14.60
2018-10-11T09:18:48.323Z,17.20
2018-10-11T09:23:50.494Z,15.30
2018-10-11T09:28:46.292Z,13.50
2018-10-11T09:33:50.970Z,15.50
2018-10-11T09:38:50.287Z,12.70
2018-10-11T09:43:47.375Z,13.20
2018-10-11T09:48:46.802Z,13.10
2018-10-11T09:53:45.850Z,11.80
2018-10-11T09:58:44.571Z,12.30
2018-10-11T10:03:47.428Z,12.10
2018-10-11T10:08:48.492Z,12.20
2018-10-11T10:13:43.511Z,13.40
2018-10-11T10:18:42.695Z,12.70
2018-10-11T10:23:40.872Z,12.30
2018-10-11T10:28:39.661Z,11.30
2018-10-11T10:33:44.271Z,12.50
2018-10-11T10:38:41.992Z,11.10
2018-10-11T10:43:40.790Z,10.80
2018-10-11T10:48:39.705Z,9.20
2018-10-11T10:53:38.568Z,9.40
2018-10-11T10:58:34.584Z,13.20
2018-10-11T11:03:30.676Z,6.50
2018-10-11T11:08:29.888Z,6.70
2018-10-11T11:13:25.444Z,6.70
2018-10-11T11:18:22.756Z,6.80
2018-10-11T11:23:18.898Z,6.20
2018-10-11T11:28:12.684Z,6.20
2018-10-11T11:33:10.390Z,6.30
2018-10-11T11:38:04.294Z,5.40
2018-10-11T11:42:59.179Z,7.00
2018-10-11T11:47:53.824Z,7.90
2018-10-11T11:52:50.933Z,7.90
2018-10-11T11:57:47.712Z,8.00
2018-10-11T12:02:41.091Z,6.60
2018-10-11T12:07:39.012Z,6.20
2018-10-11T12:12:34.910Z,6.00
2018-10-11T12:17:32.059Z,8.60
2018-10-11T12:22:26.217Z,9.00
2018-10-11T12:27:23.487Z,6.70
2018-10-11T12:32:21.987Z,6.80
2018-10-11T12:37:23.972Z,7.40
2018-10-11T12:42:21.137Z,6.60
2018-10-11T12:47:16.792Z,6.50
2018-10-11T12:52:14.430Z,7.50
2018-10-11T12:57:20.844Z,8.00
2018-10-11T13:02:24.466Z,6.70
2018-10-11T13:07:26.538Z,6.30
2018-10-11T13:12:32.434Z,6.90
2018-10-11T13:17:27.161Z,6.00
2018-10-11T13:22:36.301Z,6.90
2018-10-11T13:27:30.561Z,10.10
2018-10-11T13:32:27.925Z,7.60
2018-10-11T13:37:24.751Z,6.70
2018-10-11T13:42:23.264Z,5.70
2018-10-11T13:47:43.708Z,6.30
2018-10-11T13:52:49.816Z,7.20
2018-10-11T13:57:59.379Z,6.20
2018-10-11T14:02:57.845Z,6.40
2018-10-11T14:07:55.967Z,5.60
2018-10-11T14:12:59.178Z,5.80
2018-10-11T14:17:59.968Z,7.30
2018-10-11T14:23:14.634Z,5.80
2018-10-11T14:28:16.289Z,5.60
2018-10-11T14:33:19.405Z,6.10
2018-10-11T14:38:17.957Z,5.30
2018-10-11T14:43:25.132Z,5.40
2018-10-11T14:48:29.502Z,5.60
2018-10-11T14:53:36.738Z,6.60
2018-10-11T14:58:34.913Z,6.30
2018-10-11T15:03:30.340Z,6.00
2018-10-11T15:08:24.536Z,5.30
2018-10-11T15:13:21.066Z,5.40
2018-10-11T15:18:18.297Z,5.60
2018-10-11T15:23:14.583Z,6.70
2018-10-11T15:28:11.226Z,6.70
2018-10-11T15:33:07.223Z,5.40
2018-10-11T15:38:10.321Z,5.50
2018-10-11T15:43:11.387Z,5.60
2018-10-11T15:48:09.969Z,5.40
2018-10-11T15:53:11.371Z,5.80
2018-10-11T15:58:18.888Z,5.50
2018-10-11T16:03:20.761Z,6.20
2018-10-11T16:08:19.442Z,5.50
2018-10-11T16:13:18.345Z,5.80
2018-10-11T16:18:33.593Z,6.20
2018-10-11T16:23:33.909Z,6.20
2018-10-11T16:28:32.121Z,6.10
2018-10-11T16:33:47.544Z,7.20
2018-10-11T16:38:46.885Z,6.40
2018-10-11T16:44:12.349Z,7.00
2018-10-11T16:49:28.194Z,7.80
2018-10-11T16:54:33.925Z,7.20
2018-10-11T16:59:52.720Z,21.40
2018-10-11T17:04:59.947Z,8.50
2018-10-11T17:10:10.741Z,9.00
2018-10-11T17:15:16.986Z,6.80
2018-10-11T17:20:16.894Z,7.20
2018-10-11T17:25:22.238Z,8.60
2018-10-11T17:30:51.107Z,7.30
2018-10-11T17:41:35.955Z,8.10
2018-10-11T17:46:50.256Z,8.00
2018-10-11T17:51:55.996Z,7.60
2018-10-11T17:57:04.089Z,7.20
2018-10-11T18:02:16.515Z,7.60
2018-10-11T18:07:37.250Z,7.70
2018-10-11T18:12:47.403Z,7.70
2018-10-11T18:17:52.043Z,8.80
2018-10-11T18:23:00.651Z,7.80
2018-10-11T18:28:00.926Z,7.90
2018-10-11T18:33:10.489Z,7.80
2018-10-11T18:43:32.382Z,8.80
2018-10-11T18:48:43.872Z,8.60
2018-10-11T18:53:57.205Z,8.90
2018-10-11T18:59:05.573Z,8.10
2018-10-11T19:04:15.478Z,9.50
2018-10-11T19:09:23.430Z,8.70
2018-10-11T19:14:52.150Z,9.60
2018-10-11T19:19:57.190Z,9.40
2018-10-11T19:30:28.670Z,12.70
2018-10-11T19:35:46.330Z,10.70
2018-10-11T19:41:13.957Z,10.50
2018-10-11T19:51:45.839Z,11.00
2018-10-11T19:57:13.730Z,11.40
2018-10-11T20:02:30.607Z,17.30
2018-10-11T20:07:37.832Z,13.00
2018-10-11T20:18:19.140Z,13.50
2018-10-11T20:23:35.111Z,12.50
2018-10-11T20:28:54.012Z,12.80
2018-10-11T20:34:16.596Z,12.80
2018-10-11T20:39:38.138Z,13.20
2018-10-11T20:44:52.091Z,12.60
2018-10-11T20:55:28.146Z,14.10
2018-10-11T21:00:42.095Z,12.40
2018-10-11T21:11:15.864Z,14.10
2018-10-11T21:16:24.553Z,12.50
2018-10-11T21:21:44.590Z,12.10
2018-10-11T21:32:23.451Z,14.00
2018-10-11T21:37:51.092Z,13.50
2018-10-11T21:43:05.544Z,13.30
2018-10-11T21:48:29.424Z,13.90
2018-10-11T21:53:40.910Z,13.30
2018-10-11T22:04:18.550Z,14.80
2018-10-11T22:20:21.882Z,14.10
2018-10-11T22:25:29.205Z,13.30
2018-10-11T22:41:12.262Z,15.40
2018-10-11T22:46:30.119Z,13.10
2018-10-11T23:17:58.019Z,15.10
2018-10-11T23:23:16.250Z,14.20
2018-10-11T23:39:08.894Z,16.30
2018-10-11T23:44:37.302Z,15.40
